Time;durP1;ratioP1;P1;durP2;ratioP2;P2;SDS_P1;SDS_P2;PMS_P1;PMS_P2;Temp;Humidity;BMP_temperature;BMP_pressure;BME280_temperature;BME280_humidity;BME280_pressure;Samples;Min_cycle;Max_cycle;Signal;HPM_P1;HPM_P2
2021/12/14 00:00:12;;;;;;;3.20;2.10;;;7.80;99.90;;;;;;4951469;29;20179;-84
2021/12/14 00:02:42;;;;;;;1.50;1.50;;;7.80;99.90;;;;;;4919451;29;20540;-82
2021/12/14 00:05:10;;;;;;;0.88;0.88;;;7.80;99.90;;;;;;4919516;29;20047;-84
2021/12/14 00:07:36;;;;;;;3.53;2.40;;;7.70;99.90;;;;;;4934910;29;20123;-83
2021/12/14 00:10:14;;;;;;;0.88;0.82;;;7.70;99.90;;;;;;4935034;29;20562;-82
2021/12/14 00:15:24;;;;;;;0.98;0.82;;;7.70;99.90;;;;;;4943539;29;20075;-82
2021/12/14 00:17:54;;;;;;;2.20;1.08;;;7.70;99.90;;;;;;4934671;29;20055;-82
2021/12/14 00:20:36;;;;;;;3.38;1.45;;;7.70;99.90;;;;;;4934443;28;20048;-82
2021/12/14 00:25:43;;;;;;;2.38;0.52;;;7.70;99.90;;;;;;5013873;28;20129;-82
2021/12/14 00:28:17;;;;;;;0.77;0.52;;;7.70;99.90;;;;;;5013392;28;20136;-82
2021/12/14 00:30:45;;;;;;;2.28;1.52;;;7.80;99.90;;;;;;5014469;28;20405;-82
2021/12/14 00:33:14;;;;;;;1.33;1.33;;;7.70;99.90;;;;;;5014354;28;20493;-82
2021/12/14 00:35:42;;;;;;;2.00;1.90;;;7.70;99.90;;;;;;5012841;28;20092;-81
2021/12/14 00:38:10;;;;;;;1.17;1.17;;;7.70;99.90;;;;;;5014198;28;20034;-83
2021/12/14 00:40:39;;;;;;;4.43;1.38;;;7.70;99.90;;;;;;5013814;28;20095;-82
2021/12/14 00:43:06;;;;;;;1.65;1.55;;;7.70;99.90;;;;;;5014072;28;20042;-79
2021/12/14 00:45:35;;;;;;;1.77;0.50;;;7.60;99.90;;;;;;5002790;28;20082;-82
2021/12/14 00:48:00;;;;;;;1.30;1.23;;;7.70;99.90;;;;;;4993949;28;20052;-83
2021/12/14 00:50:28;;;;;;;1.73;1.63;;;7.60;99.90;;;;;;4976353;28;20186;-82
2021/12/14 00:52:53;;;;;;;1.58;0.70;;;7.80;99.90;;;;;;4994459;28;20125;-82
2021/12/14 00:55:31;;;;;;;1.30;1.25;;;7.70;99.90;;;;;;4976829;28;20117;-82
2021/12/14 00:57:57;;;;;;;1.60;1.05;;;7.60;99.90;;;;;;4992818;28;20046;-83
2021/12/14 01:00:28;;;;;;;1.25;1.05;;;7.70;99.90;;;;;;4976271;28;20053;-83
2021/12/14 01:02:54;;;;;;;1.92;0.85;;;7.60;99.90;;;;;;4982300;28;20065;-82
2021/12/14 01:05:31;;;;;;;1.95;1.25;;;7.60;99.90;;;;;;5014029;28;20146;-82
2021/12/14 01:07:58;;;;;;;1.17;1.17;;;7.60;99.90;;;;;;5013571;28;20092;-82
2021/12/14 01:10:36;;;;;;;4.13;1.23;;;7.60;99.90;;;;;;5013586;28;20069;-82
2021/12/14 01:13:06;;;;;;;2.63;2.42;;;7.70;99.90;;;;;;5013038;28;20100;-83
2021/12/14 01:16:02;;;;;;;6.65;6.05;;;7.60;99.90;;;;;;5012480;28;20054;-84
2021/12/14 01:21:22;;;;;;;1.50;1.30;;;7.60;99.90;;;;;;4995948;28;20046;-84
2021/12/14 01:24:02;;;;;;;4.10;2.33;;;7.60;99.90;;;;;;5013377;28;20048;-85
2021/12/14 01:26:31;;;;;;;3.75;1.05;;;7.60;99.90;;;;;;5013366;28;20080;-85
2021/12/14 01:28:57;;;;;;;2.97;0.98;;;7.60;99.90;;;;;;4995653;28;20053;-83
2021/12/14 01:31:35;;;;;;;1.95;1.85;;;7.60;99.90;;;;;;5011968;28;20046;-84
2021/12/14 01:34:12;;;;;;;3.10;2.25;;;7.60;99.90;;;;;;5028362;28;20042;-84
2021/12/14 01:36:44;;;;;;;1.13;1.08;;;7.60;99.90;;;;;;5028168;28;20057;-83
2021/12/14 01:41:47;;;;;;;3.10;1.27;;;7.60;99.90;;;;;;5012839;28;20057;-85
2021/12/14 01:44:13;;;;;;;6.93;2.20;;;7.70;99.90;;;;;;5012583;28;20080;-83
2021/12/14 01:46:43;;;;;;;4.32;0.82;;;7.60;99.90;;;;;;5011872;28;20506;-84
2021/12/14 01:49:14;;;;;;;3.10;2.90;;;7.60;99.90;;;;;;5027753;28;20045;-83
2021/12/14 01:51:44;;;;;;;2.70;2.45;;;7.60;99.90;;;;;;5012961;28;20151;-83
2021/12/14 01:54:13;;;;;;;2.72;1.20;;;7.60;99.90;;;;;;4995352;28;20057;-82
2021/12/14 01:56:39;;;;;;;0.90;0.90;;;7.60;99.90;;;;;;4995157;28;20046;-84
2021/12/14 01:59:14;;;;;;;2.05;1.90;;;7.70;99.90;;;;;;4995349;28;20054;-83
2021/12/14 02:02:08;;;;;;;4.07;2.83;;;7.60;99.90;;;;;;5012535;28;20494;-83
2021/12/14 02:04:39;;;;;;;1.95;1.63;;;7.60;99.90;;;;;;5011683;28;20058;-83
2021/12/14 02:07:08;;;;;;;0.85;0.85;;;7.70;99.90;;;;;;5012825;28;20045;-81
2021/12/14 02:09:37;;;;;;;1.50;1.40;;;7.70;99.90;;;;;;5012125;28;20038;-81
2021/12/14 02:12:10;;;;;;;1.60;1.48;;;7.70;99.90;;;;;;5011468;28;20053;-81
2021/12/14 02:14:36;;;;;;;1.38;0.98;;;7.70;99.90;;;;;;5010244;28;20043;-81
2021/12/14 02:17:05;;;;;;;3.95;3.65;;;7.70;99.90;;;;;;4995474;28;20038;-81
2021/12/14 02:19:32;;;;;;;2.70;2.47;;;7.70;99.90;;;;;;4992897;28;20053;-81
2021/12/14 02:21:59;;;;;;;1.23;1.05;;;7.70;99.90;;;;;;4975443;28;20093;-81
2021/12/14 02:24:27;;;;;;;1.67;1.58;;;7.80;99.90;;;;;;4975497;28;20054;-80
2021/12/14 02:26:54;;;;;;;1.90;1.80;;;7.80;99.90;;;;;;4993033;28;20054;-80
2021/12/14 02:29:29;;;;;;;4.47;4.22;;;7.80;99.90;;;;;;4975484;28;20050;-80
2021/12/14 02:32:11;;;;;;;1.25;1.20;;;7.80;99.90;;;;;;4975375;28;20049;-81
2021/12/14 02:34:44;;;;;;;6.95;2.20;;;7.80;99.90;;;;;;4975363;28;20109;-81
2021/12/14 02:37:11;;;;;;;1.52;1.48;;;7.90;99.90;;;;;;4975013;28;20046;-81
2021/12/14 02:42:15;;;;;;;2.65;1.38;;;7.80;99.90;;;;;;4975081;28;20566;-85
2021/12/14 02:44:46;;;;;;;1.48;1.48;;;7.80;99.90;;;;;;5002800;28;20038;-86
2021/12/14 02:47:16;;;;;;;4.35;2.03;;;7.80;99.90;;;;;;4993032;28;20065;-87
2021/12/14 02:49:43;;;;;;;5.50;1.75;;;7.80;99.90;;;;;;4993901;28;20065;-88
2021/12/14 02:52:12;;;;;;;2.88;1.80;;;7.80;99.90;;;;;;5016837;28;20494;-89
2021/12/14 02:54:48;;;;;;;2.45;2.25;;;7.80;99.90;;;;;;5016250;28;20076;-87
2021/12/14 02:57:24;;;;;;;3.35;2.15;;;7.80;99.90;;;;;;5015647;28;20085;-85
2021/12/14 02:59:51;;;;;;;1.58;1.48;;;7.90;99.90;;;;;;4998800;28;20049;-87
2021/12/14 03:02:23;;;;;;;8.40;4.90;;;7.90;99.90;;;;;;4998900;28;20544;-88
2021/12/14 03:05:03;;;;;;;2.50;1.33;;;7.90;99.90;;;;;;4999150;28;20103;-87
2021/12/14 03:07:33;;;;;;;10.63;3.60;;;7.90;99.90;;;;;;4998201;28;20397;-86
2021/12/14 03:10:19;;;;;;;3.85;3.67;;;7.90;99.90;;;;;;5015051;28;20130;-86
2021/12/14 03:12:50;;;;;;;1.33;1.05;;;7.90;99.90;;;;;;4999639;28;20457;-88
2021/12/14 03:15:21;;;;;;;1.63;1.38;;;7.90;99.90;;;;;;4998952;28;20072;-88
2021/12/14 03:17:50;;;;;;;3.00;1.65;;;7.90;99.90;;;;;;5016530;28;20081;-87
2021/12/14 03:20:24;;;;;;;3.22;1.67;;;7.90;99.90;;;;;;5015400;28;20057;-87
2021/12/14 03:23:08;;;;;;;2.25;1.55;;;7.90;99.90;;;;;;5031342;28;20053;-83
2021/12/14 03:25:36;;;;;;;3.15;1.70;;;7.90;99.90;;;;;;4998329;28;20041;-85
2021/12/14 03:28:02;;;;;;;4.60;3.72;;;7.90;99.90;;;;;;4998369;28;20068;-85
2021/12/14 03:30:38;;;;;;;0.95;0.95;;;7.90;99.90;;;;;;5014417;28;20042;-85
2021/12/14 03:33:13;;;;;;;1.10;1.08;;;7.90;99.90;;;;;;5015885;28;20046;-82
2021/12/14 03:35:50;;;;;;;3.67;2.30;;;7.90;99.90;;;;;;5015731;28;20042;-86
2021/12/14 03:38:24;;;;;;;2.30;1.27;;;7.80;99.90;;;;;;4998646;28;20437;-84
2021/12/14 03:41:07;;;;;;;4.25;3.08;;;7.90;99.90;;;;;;4998257;28;20045;-82
2021/12/14 03:43:35;;;;;;;0.77;0.77;;;7.80;99.90;;;;;;5013979;28;20096;-86
2021/12/14 03:46:02;;;;;;;2.45;1.83;;;7.70;99.90;;;;;;4997783;28;20053;-87
2021/12/14 03:48:31;;;;;;;2.13;1.58;;;7.70;99.90;;;;;;5015317;28;20125;-86
2021/12/14 03:50:57;;;;;;;3.80;3.50;;;7.60;99.90;;;;;;5013687;28;20119;-86
2021/12/14 03:53:24;;;;;;;4.72;1.33;;;7.60;99.90;;;;;;4997341;28;20486;-84
2021/12/14 03:55:58;;;;;;;5.13;4.03;;;7.50;99.90;;;;;;5030758;28;20721;-86
2021/12/14 03:58:30;;;;;;;3.30;1.35;;;7.50;99.90;;;;;;4997317;28;20061;-84
2021/12/14 04:01:16;;;;;;;2.00;1.70;;;7.40;99.90;;;;;;5029089;28;20046;-85
2021/12/14 04:03:43;;;;;;;2.45;2.25;;;7.40;99.90;;;;;;5013556;28;20124;-88
2021/12/14 04:06:10;;;;;;;7.13;1.30;;;7.40;99.90;;;;;;5031347;28;20081;-86
2021/12/14 04:08:37;;;;;;;3.97;1.38;;;7.40;99.90;;;;;;4998826;28;20057;-86
2021/12/14 04:11:05;;;;;;;1.10;0.95;;;7.40;99.90;;;;;;5031840;28;20057;-83
2021/12/14 04:13:35;;;;;;;2.83;2.63;;;7.40;99.90;;;;;;5015030;28;20049;-84
2021/12/14 04:16:02;;;;;;;2.40;2.20;;;7.50;99.90;;;;;;5014897;28;20046;-83
2021/12/14 04:18:29;;;;;;;2.13;1.85;;;7.50;99.90;;;;;;5014569;28;20490;-85
2021/12/14 04:20:58;;;;;;;3.65;1.95;;;7.50;99.90;;;;;;5013393;28;20050;-83
2021/12/14 04:23:28;;;;;;;2.28;2.08;;;7.60;99.90;;;;;;5014354;28;20718;-83
2021/12/14 04:25:57;;;;;;;4.68;3.22;;;7.50;99.90;;;;;;4997081;28;20041;-84
2021/12/14 04:28:26;;;;;;;0.77;0.77;;;7.50;99.90;;;;;;5013106;28;20514;-82
2021/12/14 04:30:52;;;;;;;3.22;1.50;;;7.50;99.90;;;;;;5014783;28;20046;-85
2021/12/14 04:33:31;;;;;;;13.02;2.50;;;7.50;99.90;;;;;;4997238;28;20402;-84
2021/12/14 04:35:57;;;;;;;2.25;2.08;;;7.50;99.90;;;;;;5013661;28;20561;-81
2021/12/14 04:38:29;;;;;;;1.70;1.60;;;7.50;99.90;;;;;;5029669;28;20042;-83
2021/12/14 04:52:00;;;;;;;4.55;1.88;;;7.50;99.90;;;;;;4996663;28;20057;-85
2021/12/14 04:54:28;;;;;;;3.17;1.35;;;7.60;99.90;;;;;;4996380;28;20080;-85
2021/12/14 04:56:54;;;;;;;2.97;2.83;;;7.60;99.90;;;;;;4996694;28;20053;-86
2021/12/14 05:03:03;;;;;;;8.57;3.47;;;7.50;99.90;;;;;;5013906;28;20040;-83
2021/12/14 05:05:33;;;;;;;2.17;1.77;;;7.50;99.90;;;;;;5013807;28;20053;-85
2021/12/14 05:10:42;;;;;;;4.75;4.35;;;7.50;99.90;;;;;;4996485;28;20379;-84
2021/12/14 05:13:08;;;;;;;7.15;3.85;;;7.50;99.90;;;;;;4995950;28;20513;-86
2021/12/14 05:15:41;;;;;;;2.75;2.33;;;7.50;99.90;;;;;;5012444;28;20038;-84
2021/12/14 05:18:12;;;;;;;3.50;1.33;;;7.50;99.90;;;;;;5012527;28;20090;-84
2021/12/14 05:20:41;;;;;;;2.95;2.75;;;7.60;99.90;;;;;;5028883;28;20402;-85
2021/12/14 05:23:07;;;;;;;1.85;1.45;;;7.60;99.90;;;;;;5013800;28;20445;-85
2021/12/14 05:25:33;;;;;;;5.53;2.63;;;7.60;99.90;;;;;;5012733;28;20402;-85
2021/12/14 05:28:01;;;;;;;3.58;1.90;;;7.70;99.90;;;;;;5012371;28;20052;-84
2021/12/14 05:30:31;;;;;;;7.35;5.32;;;7.60;99.90;;;;;;5013755;28;20050;-85
2021/12/14 05:33:05;;;;;;;3.22;2.42;;;7.60;99.90;;;;;;4996178;28;20061;-84
2021/12/14 05:35:32;;;;;;;1.17;1.05;;;7.70;99.90;;;;;;5028831;28;20406;-85
2021/12/14 05:37:59;;;;;;;3.30;2.60;;;7.70;99.90;;;;;;4996009;28;20042;-83
2021/12/14 05:43:07;;;;;;;2.80;2.35;;;7.60;99.90;;;;;;5013399;28;20188;-86
2021/12/14 05:45:43;;;;;;;2.10;1.83;;;7.60;99.90;;;;;;4995783;28;20069;-85
2021/12/14 05:48:15;;;;;;;2.92;2.00;;;7.60;99.90;;;;;;5013373;28;20184;-85
2021/12/14 05:50:45;;;;;;;3.20;2.90;;;7.60;99.90;;;;;;5013064;28;20061;-84
2021/12/14 05:53:21;;;;;;;1.50;1.50;;;7.60;99.90;;;;;;4995630;28;20050;-85
2021/12/14 05:55:48;;;;;;;6.57;4.97;;;7.70;99.90;;;;;;5012363;28;20067;-87
2021/12/14 05:58:18;;;;;;;4.20;3.47;;;7.80;99.90;;;;;;5012336;28;20062;-82
2021/12/14 06:00:50;;;;;;;3.03;2.72;;;7.80;99.90;;;;;;4996002;28;20042;-86
2021/12/14 06:03:26;;;;;;;8.07;2.38;;;7.80;99.90;;;;;;4996472;28;20463;-86
2021/12/14 06:05:54;;;;;;;2.90;2.67;;;7.80;99.90;;;;;;4996435;28;20394;-81
2021/12/14 06:08:26;;;;;;;8.43;2.88;;;7.80;99.90;;;;;;5012248;28;20046;-86
2021/12/14 06:10:53;;;;;;;4.35;4.15;;;7.90;99.90;;;;;;5012032;28;20148;-85
2021/12/14 06:13:19;;;;;;;1.35;1.35;;;7.90;99.90;;;;;;5011589;28;20046;-85
2021/12/14 06:15:47;;;;;;;2.25;2.13;;;7.90;99.90;;;;;;4995265;28;20108;-87
2021/12/14 06:18:20;;;;;;;2.95;2.10;;;7.80;99.90;;;;;;5012756;28;20541;-85
2021/12/14 06:20:46;;;;;;;3.08;2.75;;;7.80;99.90;;;;;;5011508;28;20052;-87
2021/12/14 06:23:13;;;;;;;4.82;4.18;;;7.80;99.90;;;;;;5012505;28;20037;-87
2021/12/14 06:25:39;;;;;;;11.32;3.40;;;7.80;99.90;;;;;;4995194;28;20108;-87
2021/12/14 06:28:05;;;;;;;2.30;2.20;;;7.80;99.90;;;;;;5028318;28;20038;-86
2021/12/14 06:30:36;;;;;;;15.90;4.95;;;7.80;99.90;;;;;;5013154;28;20464;-88
2021/12/14 06:33:05;;;;;;;2.75;2.55;;;7.80;99.90;;;;;;5012127;28;20038;-87
2021/12/14 06:35:40;;;;;;;4.13;2.95;;;7.70;99.90;;;;;;5028586;28;20042;-89
2021/12/14 06:38:28;;;;;;;6.90;2.65;;;7.70;99.90;;;;;;5028395;28;20050;-88
2021/12/14 06:40:57;;;;;;;4.47;3.45;;;7.70;99.90;;;;;;5011755;28;20064;-86
2021/12/14 06:47:44;;;;;;;7.65;4.60;;;7.60;99.90;;;;;;5012649;28;20041;-85
2021/12/14 06:50:14;;;;;;;2.10;1.02;;;7.70;99.90;;;;;;4994464;28;20107;-86
2021/12/14 06:52:40;;;;;;;5.38;4.13;;;7.60;99.90;;;;;;5012771;28;20050;-82
2021/12/14 06:55:18;;;;;;;1.60;1.27;;;7.70;99.90;;;;;;5012940;28;20042;-86
2021/12/14 06:57:44;;;;;;;3.78;3.58;;;7.70;99.90;;;;;;5013273;28;20046;-83
2021/12/14 07:00:10;;;;;;;3.00;1.85;;;7.70;99.90;;;;;;5017833;28;20049;-83
2021/12/14 07:02:36;;;;;;;5.18;3.40;;;7.70;99.90;;;;;;5015097;28;20042;-80
2021/12/14 07:05:03;;;;;;;3.20;2.92;;;7.70;99.90;;;;;;5011439;28;20046;-86
2021/12/14 07:07:30;;;;;;;4.90;3.25;;;7.70;99.90;;;;;;5027717;28;20053;-85
2021/12/14 07:09:59;;;;;;;4.90;4.30;;;7.60;99.90;;;;;;4994878;28;20050;-85
2021/12/14 07:12:32;;;;;;;3.05;2.85;;;7.70;99.90;;;;;;4995151;28;20049;-83
2021/12/14 07:15:11;;;;;;;7.35;4.07;;;7.70;99.90;;;;;;5010921;28;20065;-85
2021/12/14 07:17:43;;;;;;;5.18;3.35;;;7.80;99.90;;;;;;5011081;28;20072;-83
2021/12/14 07:20:11;;;;;;;2.50;2.22;;;7.80;99.90;;;;;;5012496;28;20045;-83
2021/12/14 07:22:49;;;;;;;3.67;2.58;;;7.80;99.90;;;;;;5027504;28;20049;-85
2021/12/14 07:25:27;;;;;;;4.22;3.33;;;7.80;99.90;;;;;;4994671;28;20045;-84
2021/12/14 07:28:13;;;;;;;3.40;3.05;;;7.80;99.90;;;;;;5011047;28;20050;-82
2021/12/14 07:30:52;;;;;;;7.03;3.10;;;7.80;99.90;;;;;;5011021;28;20490;-82
2021/12/14 07:33:17;;;;;;;6.25;3.67;;;7.80;99.90;;;;;;4994806;28;20077;-85
2021/12/14 07:35:52;;;;;;;4.78;1.65;;;7.90;99.90;;;;;;5013032;28;20084;-85
2021/12/14 07:38:23;;;;;;;7.30;3.17;;;7.80;99.90;;;;;;5030855;28;20042;-86
2021/12/14 07:40:55;;;;;;;3.35;2.40;;;7.80;99.90;;;;;;5015900;28;20092;-86
2021/12/14 07:43:27;;;;;;;2.88;2.63;;;7.90;99.90;;;;;;4997879;28;20451;-85
2021/12/14 07:45:54;;;;;;;5.20;3.03;;;7.80;99.90;;;;;;5030714;28;20073;-86
2021/12/14 07:48:22;;;;;;;5.20;4.50;;;7.80;99.90;;;;;;4998376;28;20042;-84
2021/12/14 07:50:53;;;;;;;5.93;2.60;;;7.80;99.90;;;;;;4998358;28;20054;-86
2021/12/14 07:53:40;;;;;;;2.47;2.37;;;7.70;99.90;;;;;;5021678;28;20057;-82
2021/12/14 07:56:07;;;;;;;5.88;3.17;;;7.70;99.90;;;;;;5005066;28;20429;-86
2021/12/14 07:58:38;;;;;;;3.83;3.53;;;7.80;99.90;;;;;;5015715;28;20054;-85
2021/12/14 08:01:06;;;;;;;6.95;4.63;;;7.70;99.90;;;;;;4998321;28;20085;-83
2021/12/14 08:03:33;;;;;;;3.45;3.13;;;7.70;99.90;;;;;;5013939;28;20137;-86
2021/12/14 08:06:06;;;;;;;7.07;4.18;;;7.80;99.90;;;;;;4998036;28;20054;-80
2021/12/14 08:08:54;;;;;;;7.78;3.67;;;7.80;99.90;;;;;;4997730;28;20085;-85
2021/12/14 08:14:07;;;;;;;4.75;4.30;;;7.70;99.90;;;;;;5015362;28;20052;-86
2021/12/14 08:16:53;;;;;;;5.55;3.70;;;7.80;99.90;;;;;;5014079;28;20046;-88
2021/12/14 08:19:36;;;;;;;7.63;5.63;;;7.70;99.90;;;;;;5014254;28;20044;-85
2021/12/14 08:22:25;;;;;;;11.98;6.30;;;7.70;99.90;;;;;;4997294;28;20046;-81
2021/12/14 08:24:51;;;;;;;8.50;3.28;;;7.80;99.90;;;;;;4997523;28;20096;-86
2021/12/14 08:27:23;;;;;;;7.43;5.72;;;7.80;99.90;;;;;;5013743;28;20076;-84
2021/12/14 08:29:50;;;;;;;;;;;7.80;99.90;;;;;;4997832;28;20100;-87
2021/12/14 08:32:21;;;;;;;2.15;1.98;;;7.80;99.90;;;;;;5031196;28;20385;-89
2021/12/14 08:34:49;;;;;;;3.10;2.05;;;7.80;99.90;;;;;;5014275;28;20049;-87
2021/12/14 08:37:20;;;;;;;6.10;3.63;;;7.80;99.90;;;;;;5013941;28;20421;-88
2021/12/14 08:39:51;;;;;;;9.63;4.97;;;7.80;99.90;;;;;;5013734;28;20053;-79
2021/12/14 08:42:30;;;;;;;13.57;5.53;;;7.90;99.90;;;;;;5013786;28;20049;-91
2021/12/14 08:44:58;;;;;;;6.40;3.65;;;7.90;99.90;;;;;;4997756;28;20046;-81
2021/12/14 08:47:32;;;;;;;4.20;2.25;;;7.90;99.90;;;;;;4997058;28;20135;-83
2021/12/14 08:50:01;;;;;;;11.55;4.50;;;7.90;99.90;;;;;;5011517;28;20065;-83
2021/12/14 08:52:28;;;;;;;6.97;5.43;;;8.00;99.90;;;;;;4997145;28;20061;-82
2021/12/14 08:54:55;;;;;;;7.40;4.85;;;8.00;99.90;;;;;;5015196;28;20076;-87
2021/12/14 08:57:25;;;;;;;3.35;2.50;;;8.00;99.90;;;;;;4997387;28;20042;-78
2021/12/14 08:59:58;;;;;;;4.57;3.65;;;8.00;99.90;;;;;;4997428;28;20057;-85
2021/12/14 09:02:26;;;;;;;5.70;4.97;;;8.00;99.90;;;;;;4996964;28;20487;-84
2021/12/14 09:04:56;;;;;;;16.25;5.68;;;8.10;99.90;;;;;;4997233;28;20133;-85
2021/12/14 09:07:27;;;;;;;17.88;4.05;;;8.10;99.90;;;;;;5014409;28;20045;-86
2021/12/14 09:09:54;;;;;;;12.57;3.45;;;8.10;99.90;;;;;;5014727;28;20041;-79
2021/12/14 09:12:27;;;;;;;13.13;4.90;;;8.10;99.90;;;;;;5012983;28;20101;-83
2021/12/14 09:14:56;;;;;;;18.40;5.20;;;8.10;99.90;;;;;;5014079;28;20046;-85
2021/12/14 09:17:23;;;;;;;4.45;4.15;;;8.10;99.90;;;;;;4997662;28;20104;-84
2021/12/14 09:19:54;;;;;;;8.07;3.25;;;8.10;99.90;;;;;;5013864;28;20053;-88
2021/12/14 09:22:31;;;;;;;4.53;4.32;;;8.20;99.90;;;;;;5013349;28;20383;-88
2021/12/14 09:24:58;;;;;;;11.32;5.47;;;8.20;99.90;;;;;;4996562;28;20050;-88
2021/12/14 09:27:26;;;;;;;3.05;2.80;;;8.20;99.90;;;;;;4996816;28;20041;-87
2021/12/14 09:29:53;;;;;;;5.88;4.65;;;8.20;99.90;;;;;;5013177;28;20081;-89
2021/12/14 09:32:25;;;;;;;3.75;3.55;;;8.20;99.90;;;;;;5013127;28;20157;-89
2021/12/14 09:34:52;;;;;;;8.40;3.38;;;8.20;99.90;;;;;;4997051;28;20088;-88
2021/12/14 09:37:19;;;;;;;3.72;3.45;;;8.20;99.90;;;;;;5013517;28;20046;-89
2021/12/14 09:39:55;;;;;;;6.55;4.03;;;8.30;99.90;;;;;;4996929;28;20053;-87
2021/12/14 09:42:28;;;;;;;9.98;3.03;;;8.30;99.90;;;;;;5013723;28;20482;-89
2021/12/14 09:44:57;;;;;;;6.03;3.13;;;8.30;99.90;;;;;;5013604;28;20151;-86
2021/12/14 09:47:26;;;;;;;4.95;4.63;;;8.30;99.90;;;;;;4995884;28;20069;-79
2021/12/14 09:49:53;;;;;;;5.68;5.07;;;8.40;99.90;;;;;;4993415;28;20057;-86
2021/12/14 09:52:36;;;;;;;4.38;3.75;;;8.40;99.90;;;;;;5013326;28;20087;-86
2021/12/14 09:55:09;;;;;;;6.85;4.03;;;8.40;99.90;;;;;;4995751;28;20045;-86
2021/12/14 09:57:39;;;;;;;4.43;3.78;;;8.40;99.90;;;;;;4995466;28;20058;-85
2021/12/14 10:00:16;;;;;;;5.13;4.68;;;8.40;99.90;;;;;;5011639;28;20050;-85
2021/12/14 10:02:43;;;;;;;8.95;2.88;;;8.40;99.90;;;;;;5011954;28;20053;-87
2021/12/14 10:05:15;;;;;;;6.47;4.45;;;8.40;99.90;;;;;;5013401;28;20397;-88
2021/12/14 10:07:40;;;;;;;3.67;3.47;;;8.50;99.90;;;;;;5013215;28;20081;-84
2021/12/14 10:10:11;;;;;;;5.70;2.67;;;8.50;99.90;;;;;;5012049;28;20620;-85
2021/12/14 10:15:16;;;;;;;4.70;4.00;;;8.50;99.90;;;;;;5013001;28;20054;-86
2021/12/14 10:17:43;;;;;;;15.27;6.03;;;8.60;99.90;;;;;;4995944;28;20508;-88
2021/12/14 10:20:15;;;;;;;10.82;6.15;;;8.50;99.90;;;;;;5013360;28;20131;-87
2021/12/14 10:22:41;;;;;;;13.68;4.07;;;8.60;99.90;;;;;;5011748;28;20042;-86
2021/12/14 10:25:14;;;;;;;4.57;4.05;;;8.60;99.90;;;;;;4995705;28;20129;-89
2021/12/14 10:27:45;;;;;;;5.72;4.82;;;8.60;99.90;;;;;;5013319;28;20056;-88
2021/12/14 10:30:18;;;;;;;9.75;3.85;;;8.60;99.90;;;;;;5013141;28;20050;-87
2021/12/14 10:32:44;;;;;;;6.32;5.40;;;8.50;99.90;;;;;;5013000;28;20045;-86
2021/12/14 10:35:16;;;;;;;4.43;3.08;;;8.50;99.90;;;;;;5012876;28;20479;-86
2021/12/14 10:37:54;;;;;;;9.93;7.05;;;8.50;99.90;;;;;;5012831;28;20045;-86
2021/12/14 10:43:15;;;;;;;4.88;3.83;;;8.50;99.90;;;;;;4994378;28;20049;-85
2021/12/14 10:45:49;;;;;;;14.57;7.03;;;8.50;99.90;;;;;;4995299;28;20089;-87
2021/12/14 10:48:17;;;;;;;8.93;3.28;;;8.50;99.90;;;;;;4979020;28;20049;-86
2021/12/14 10:50:43;;;;;;;7.10;4.93;;;8.50;99.90;;;;;;5010658;28;20057;-86
2021/12/14 10:53:10;;;;;;;5.00;3.97;;;8.50;99.90;;;;;;5011479;28;20045;-85
2021/12/14 10:55:59;;;;;;;4.30;3.20;;;8.50;99.90;;;;;;5011329;28;20038;-86
2021/12/14 10:58:28;;;;;;;9.82;4.65;;;8.60;99.90;;;;;;5012311;28;20054;-86
2021/12/14 11:01:03;;;;;;;6.68;3.20;;;8.50;99.90;;;;;;5011417;28;20491;-86
2021/12/14 11:03:36;;;;;;;10.43;2.88;;;8.60;99.90;;;;;;4994992;28;20045;-86
2021/12/14 11:06:12;;;;;;;12.30;6.45;;;8.60;99.90;;;;;;4994703;28;20050;-86
2021/12/14 11:11:28;;;;;;;7.93;5.85;;;8.60;99.90;;;;;;4998115;28;20060;-86
2021/12/14 11:14:00;;;;;;;4.38;2.92;;;8.70;99.90;;;;;;4998420;28;20041;-86
2021/12/14 11:18:08;;;;;;;7.22;4.05;;;8.70;99.90;;;;;;4998347;28;20053;-86
2021/12/14 11:19:17;;;;;;;10.27;3.60;;;8.70;99.90;;;;;;4998367;28;20561;-87
2021/12/14 11:21:43;;;;;;;9.82;4.20;;;8.70;99.90;;;;;;4999352;28;20078;-86
2021/12/14 11:24:09;;;;;;;5.53;3.42;;;8.60;99.90;;;;;;4998122;28;20406;-84
2021/12/14 11:26:35;;;;;;;6.22;2.42;;;8.60;99.90;;;;;;4998491;28;20054;-85
2021/12/14 11:29:13;;;;;;;6.43;4.72;;;8.70;99.90;;;;;;5015911;28;20099;-83
2021/12/14 11:31:49;;;;;;;4.65;3.60;;;8.60;99.90;;;;;;4999071;28;20064;-85
2021/12/14 11:34:29;;;;;;;4.80;2.83;;;8.60;99.90;;;;;;5015665;28;20045;-84
2021/12/14 11:37:03;;;;;;;3.90;3.55;;;8.50;99.90;;;;;;4998046;28;20493;-85
2021/12/14 11:39:38;;;;;;;5.10;3.97;;;8.50;99.90;;;;;;4998214;28;20057;-86
2021/12/14 11:42:10;;;;;;;4.72;3.05;;;8.50;99.90;;;;;;4998182;28;20053;-86
2021/12/14 11:44:45;;;;;;;5.00;2.13;;;8.40;99.90;;;;;;4998071;28;20069;-86
2021/12/14 11:47:40;;;;;;;3.92;3.45;;;8.40;99.90;;;;;;5014332;28;20049;-84
2021/12/14 11:49:56;;;;;;;2.88;2.63;;;8.50;99.90;;;;;;5013764;28;20502;-86
2021/12/14 11:52:49;;;;;;;3.28;3.00;;;8.50;99.90;;;;;;5014176;28;20064;-86
2021/12/14 11:55:20;;;;;;;6.55;5.30;;;8.40;99.90;;;;;;4998612;28;20054;-86
2021/12/14 11:57:47;;;;;;;6.13;5.47;;;8.50;99.90;;;;;;5014643;28;20045;-89
2021/12/14 12:00:19;;;;;;;5.40;4.93;;;8.40;99.90;;;;;;4998350;28;20049;-89
2021/12/14 12:02:45;;;;;;;5.80;3.80;;;8.40;99.90;;;;;;5014811;28;20054;-92
2021/12/14 12:05:22;;;;;;;3.83;3.15;;;8.40;99.90;;;;;;5015552;28;20052;-86
2021/12/14 12:10:38;;;;;;;10.18;3.10;;;8.40;99.90;;;;;;4997730;28;20080;-87
2021/12/14 12:13:04;;;;;;;5.70;4.38;;;8.40;99.90;;;;;;5013960;28;20372;-89
2021/12/14 12:15:30;;;;;;;13.40;4.70;;;8.40;99.90;;;;;;4997316;28;20038;-86
2021/12/14 12:17:59;;;;;;;8.38;5.07;;;8.40;99.90;;;;;;4997310;28;20124;-88
2021/12/14 12:20:32;;;;;;;13.90;4.22;;;8.40;99.90;;;;;;5015367;28;20133;-87
2021/12/14 12:23:16;;;;;;;7.35;4.30;;;8.40;99.90;;;;;;5013056;28;20434;-86
2021/12/14 12:26:00;;;;;;;7.47;2.80;;;8.40;99.90;;;;;;5014272;28;20050;-87
2021/12/14 12:28:40;;;;;;;4.15;3.83;;;8.40;99.90;;;;;;5013880;28;20050;-89
2021/12/14 12:31:16;;;;;;;3.08;2.67;;;8.40;99.90;;;;;;4996916;28;20042;-84
2021/12/14 12:33:53;;;;;;;1.77;1.25;;;8.40;99.90;;;;;;5014685;28;20046;-86
2021/12/14 12:36:28;;;;;;;4.47;4.07;;;8.40;99.90;;;;;;5013727;28;20103;-83
2021/12/14 12:39:08;;;;;;;2.65;2.42;;;8.40;99.90;;;;;;4997473;28;20465;-86
2021/12/14 12:41:58;;;;;;;2.45;2.25;;;8.40;99.90;;;;;;5013679;28;20049;-84
2021/12/14 12:48:04;;;;;;;3.83;3.47;;;8.50;99.90;;;;;;5014553;28;20084;-87
2021/12/14 12:50:30;;;;;;;8.85;3.97;;;8.50;99.90;;;;;;4996554;28;20053;-86
2021/12/14 12:52:57;;;;;;;6.68;4.03;;;8.40;99.90;;;;;;5014387;28;20050;-84
2021/12/14 12:55:30;;;;;;;3.70;2.15;;;8.50;99.90;;;;;;4996660;28;20626;-85
2021/12/14 12:58:11;;;;;;;7.90;4.22;;;8.50;99.90;;;;;;4996536;28;20479;-85
2021/12/14 13:00:43;;;;;;;5.20;3.70;;;8.40;99.90;;;;;;4996126;28;20052;-85
2021/12/14 13:03:13;;;;;;;7.38;3.70;;;8.50;99.90;;;;;;4996547;28;20125;-85
2021/12/14 13:05:46;;;;;;;7.10;3.42;;;8.50;99.90;;;;;;5013954;28;20052;-84
2021/12/14 13:08:18;;;;;;;3.50;3.30;;;8.50;99.90;;;;;;5013672;28;20451;-85
2021/12/14 13:11:15;;;;;;;2.67;2.45;;;8.50;99.90;;;;;;5013749;28;20509;-84
2021/12/14 13:13:45;;;;;;;3.72;1.50;;;8.50;99.90;;;;;;5013735;28;20092;-84
2021/12/14 13:16:16;;;;;;;2.05;1.90;;;8.50;99.90;;;;;;5013594;28;20052;-85
2021/12/14 13:18:46;;;;;;;3.47;3.28;;;8.60;99.90;;;;;;5012379;28;20085;-81
2021/12/14 13:21:26;;;;;;;1.85;1.63;;;8.60;99.90;;;;;;4996216;28;20045;-85
2021/12/14 13:24:03;;;;;;;4.53;2.80;;;8.60;99.90;;;;;;4996165;28;20061;-85
2021/12/14 13:26:33;;;;;;;2.35;2.15;;;8.60;99.90;;;;;;5013788;28;20092;-83
2021/12/14 13:29:21;;;;;;;3.35;2.03;;;8.60;99.90;;;;;;5013571;28;20052;-86
2021/12/14 13:31:52;;;;;;;3.97;3.78;;;8.70;99.90;;;;;;5013295;28;20042;-84
2021/12/14 13:34:31;;;;;;;1.70;1.50;;;8.60;99.90;;;;;;5013463;28;20088;-84
2021/12/14 13:36:59;;;;;;;3.25;2.97;;;8.70;99.90;;;;;;5013536;28;20386;-85
2021/12/14 13:39:27;;;;;;;3.05;2.65;;;8.70;99.90;;;;;;5014323;28;20037;-91
2021/12/14 13:41:58;;;;;;;1.98;1.88;;;8.70;99.90;;;;;;5013417;28;20478;-91
2021/12/14 13:44:31;;;;;;;5.25;3.20;;;8.70;99.90;;;;;;4996354;28;20482;-86
2021/12/14 13:46:59;;;;;;;5.80;4.70;;;8.70;99.90;;;;;;5012119;28;20049;-87
2021/12/14 13:49:26;;;;;;;2.10;2.00;;;8.70;99.90;;;;;;4995282;28;20061;-88
2021/12/14 13:51:54;;;;;;;4.00;2.78;;;8.70;99.90;;;;;;5013640;28;20077;-89
2021/12/14 13:54:20;;;;;;;11.25;3.80;;;8.70;99.90;;;;;;4996635;28;20112;-88
2021/12/14 13:56:48;;;;;;;1.75;1.30;;;8.70;99.90;;;;;;5012430;28;20048;-87
2021/12/14 13:59:15;;;;;;;1.30;1.27;;;8.70;99.90;;;;;;5012117;28;20053;-90
2021/12/14 14:02:01;;;;;;;7.28;2.67;;;8.70;99.90;;;;;;4995703;28;20144;-85
2021/12/14 14:04:30;;;;;;;3.15;2.58;;;8.70;99.90;;;;;;5012668;28;20053;-84
2021/12/14 14:06:56;;;;;;;3.88;3.58;;;8.70;99.90;;;;;;5011842;28;20544;-84
2021/12/14 14:09:28;;;;;;;5.82;2.20;;;8.70;99.90;;;;;;5013936;28;20046;-88
2021/12/14 14:12:11;;;;;;;3.03;1.83;;;8.60;99.90;;;;;;5012233;28;20040;-86